sensor_id;sensor_type;location;lat;lon;timestamp;pressure;altitude;pressure_sealevel;temperature;humidity
21359;BME280;13506;50.852;20.632;2022-08-19T00:01:23;97959.63;;;22.60;98.65
21359;BME280;13506;50.852;20.632;2022-08-19T00:03:51;97955.72;;;22.48;99.35
21359;BME280;13506;50.852;20.632;2022-08-19T00:06:18;97944.91;;;22.58;98.70
21359;BME280;13506;50.852;20.632;2022-08-19T00:08:46;97941.00;;;22.68;98.02
21359;BME280;13506;50.852;20.632;2022-08-19T00:11:13;97944.16;;;22.41;98.96
21359;BME280;13506;50.852;20.632;2022-08-19T00:13:42;97942.16;;;22.43;99.71
21359;BME280;13506;50.852;20.632;2022-08-19T00:16:10;97935.88;;;22.44;99.52
21359;BME280;13506;50.852;20.632;2022-08-19T00:18:37;97926.19;;;22.20;100.00
21359;BME280;13506;50.852;20.632;2022-08-19T00:21:04;97931.19;;;22.23;100.00
21359;BME280;13506;50.852;20.632;2022-08-19T00:23:35;97933.53;;;22.09;100.00
21359;BME280;13506;50.852;20.632;2022-08-19T00:26:03;97923.56;;;22.11;100.00
21359;BME280;13506;50.852;20.632;2022-08-19T00:28:32;97924.72;;;22.25;100.00
21359;BME280;13506;50.852;20.632;2022-08-19T00:31:04;97929.47;;;22.30;100.00
21359;BME280;13506;50.852;20.632;2022-08-19T00:33:32;97925.41;;;22.11;100.00
21359;BME280;13506;50.852;20.632;2022-08-19T00:36:00;97919.03;;;21.97;100.00
21359;BME280;13506;50.852;20.632;2022-08-19T00:38:28;97918.16;;;22.05;100.00
21359;BME280;13506;50.852;20.632;2022-08-19T00:40:56;97919.31;;;22.02;100.00
21359;BME280;13506;50.852;20.632;2022-08-19T00:43:25;97916.88;;;21.92;100.00
21359;BME280;13506;50.852;20.632;2022-08-19T00:45:53;97913.25;;;21.93;100.00
21359;BME280;13506;50.852;20.632;2022-08-19T00:48:22;97924.84;;;21.84;100.00
21359;BME280;13506;50.852;20.632;2022-08-19T00:50:52;97927.50;;;21.84;100.00
21359;BME280;13506;50.852;20.632;2022-08-19T00:53:26;97929.16;;;21.85;100.00
21359;BME280;13506;50.852;20.632;2022-08-19T00:55:58;97931.00;;;21.77;100.00
21359;BME280;13506;50.852;20.632;2022-08-19T00:58:31;97922.28;;;21.68;100.00
21359;BME280;13506;50.852;20.632;2022-08-19T01:01:00;97929.22;;;21.61;100.00
21359;BME280;13506;50.852;20.632;2022-08-19T01:03:30;97925.75;;;21.60;100.00
21359;BME280;13506;50.852;20.632;2022-08-19T01:05:57;97922.59;;;21.65;100.00
21359;BME280;13506;50.852;20.632;2022-08-19T01:08:26;97926.41;;;21.62;100.00
21359;BME280;13506;50.852;20.632;2022-08-19T01:10:58;97913.00;;;21.72;100.00
21359;BME280;13506;50.852;20.632;2022-08-19T01:13:30;97924.13;;;21.59;100.00
21359;BME280;13506;50.852;20.632;2022-08-19T01:16:02;97919.97;;;21.57;100.00
21359;BME280;13506;50.852;20.632;2022-08-19T01:18:35;97911.31;;;21.71;100.00
21359;BME280;13506;50.852;20.632;2022-08-19T01:21:11;97919.66;;;21.60;100.00
21359;BME280;13506;50.852;20.632;2022-08-19T01:23:42;97923.13;;;21.60;100.00
21359;BME280;13506;50.852;20.632;2022-08-19T01:26:13;97919.97;;;21.57;100.00
21359;BME280;13506;50.852;20.632;2022-08-19T01:28:42;97917.78;;;21.77;100.00
21359;BME280;13506;50.852;20.632;2022-08-19T01:31:12;97916.47;;;21.72;100.00
21359;BME280;13506;50.852;20.632;2022-08-19T01:33:40;97910.66;;;21.77;100.00
21359;BME280;13506;50.852;20.632;2022-08-19T01:36:11;97909.41;;;21.96;100.00
21359;BME280;13506;50.852;20.632;2022-08-19T01:38:42;97912.91;;;21.88;100.00
21359;BME280;13506;50.852;20.632;2022-08-19T01:41:11;97908.66;;;21.79;100.00
21359;BME280;13506;50.852;20.632;2022-08-19T01:43:40;97901.06;;;21.76;100.00
21359;BME280;13506;50.852;20.632;2022-08-19T01:46:07;97902.69;;;21.85;100.00
21359;BME280;13506;50.852;20.632;2022-08-19T01:48:36;97899.94;;;21.62;100.00
21359;BME280;13506;50.852;20.632;2022-08-19T01:51:04;97898.41;;;21.76;100.00
21359;BME280;13506;50.852;20.632;2022-08-19T01:53:33;97893.13;;;21.76;100.00
21359;BME280;13506;50.852;20.632;2022-08-19T01:56:04;97892.34;;;21.59;100.00
21359;BME280;13506;50.852;20.632;2022-08-19T01:58:35;97875.16;;;21.55;100.00
21359;BME280;13506;50.852;20.632;2022-08-19T02:01:06;97890.53;;;21.51;100.00
21359;BME280;13506;50.852;20.632;2022-08-19T02:03:34;97889.59;;;21.44;100.00
21359;BME280;13506;50.852;20.632;2022-08-19T02:06:03;97893.34;;;21.50;100.00
21359;BME280;13506;50.852;20.632;2022-08-19T02:08:35;97882.59;;;21.35;100.00
21359;BME280;13506;50.852;20.632;2022-08-19T02:11:05;97891.56;;;21.26;100.00
21359;BME280;13506;50.852;20.632;2022-08-19T02:13:34;97886.94;;;21.36;100.00
21359;BME280;13506;50.852;20.632;2022-08-19T02:16:03;97882.13;;;21.31;100.00
21359;BME280;13506;50.852;20.632;2022-08-19T02:18:31;97884.28;;;21.36;100.00
21359;BME280;13506;50.852;20.632;2022-08-19T02:21:00;97880.47;;;21.39;100.00
21359;BME280;13506;50.852;20.632;2022-08-19T02:23:27;97890.53;;;21.35;100.00
21359;BME280;13506;50.852;20.632;2022-08-19T02:25:54;97888.72;;;21.35;100.00
21359;BME280;13506;50.852;20.632;2022-08-19T02:28:23;97880.63;;;21.45;100.00
21359;BME280;13506;50.852;20.632;2022-08-19T02:30:51;97884.28;;;21.44;100.00
21359;BME280;13506;50.852;20.632;2022-08-19T02:33:18;97879.28;;;21.41;100.00
21359;BME280;13506;50.852;20.632;2022-08-19T02:35:47;97876.66;;;21.49;100.00
21359;BME280;13506;50.852;20.632;2022-08-19T02:38:15;97883.63;;;21.42;100.00
21359;BME280;13506;50.852;20.632;2022-08-19T02:40:59;97873.84;;;21.51;100.00
21359;BME280;13506;50.852;20.632;2022-08-19T02:43:30;97878.63;;;21.55;100.00
21359;BME280;13506;50.852;20.632;2022-08-19T02:45:58;97866.53;;;21.61;100.00
21359;BME280;13506;50.852;20.632;2022-08-19T02:48:26;97872.63;;;21.70;100.00
21359;BME280;13506;50.852;20.632;2022-08-19T02:50:54;97870.63;;;21.72;100.00
21359;BME280;13506;50.852;20.632;2022-08-19T02:53:23;97868.19;;;21.54;100.00
21359;BME280;13506;50.852;20.632;2022-08-19T02:55:52;97866.91;;;21.42;100.00
21359;BME280;13506;50.852;20.632;2022-08-19T02:58:21;97868.19;;;21.54;100.00
21359;BME280;13506;50.852;20.632;2022-08-19T03:00:53;97868.56;;;21.34;100.00
21359;BME280;13506;50.852;20.632;2022-08-19T03:03:21;97871.22;;;21.43;100.00
21359;BME280;13506;50.852;20.632;2022-08-19T03:05:49;97875.84;;;21.49;100.00
21359;BME280;13506;50.852;20.632;2022-08-19T03:08:16;97874.16;;;21.48;100.00
21359;BME280;13506;50.852;20.632;2022-08-19T03:10:46;97877.16;;;21.53;100.00
21359;BME280;13506;50.852;20.632;2022-08-19T03:13:16;97874.81;;;21.50;100.00
21359;BME280;13506;50.852;20.632;2022-08-19T03:15:46;97875.31;;;21.53;100.00
21359;BME280;13506;50.852;20.632;2022-08-19T03:18:16;97879.78;;;21.61;100.00
21359;BME280;13506;50.852;20.632;2022-08-19T03:20:44;97880.22;;;21.65;100.00
21359;BME280;13506;50.852;20.632;2022-08-19T03:23:14;97879.88;;;21.76;100.00
21359;BME280;13506;50.852;20.632;2022-08-19T03:25:46;97880.19;;;21.81;100.00
21359;BME280;13506;50.852;20.632;2022-08-19T03:28:15;97890.91;;;21.88;100.00
21359;BME280;13506;50.852;20.632;2022-08-19T03:30:55;97884.66;;;21.81;100.00
21359;BME280;13506;50.852;20.632;2022-08-19T03:33:25;97884.09;;;21.93;100.00
21359;BME280;13506;50.852;20.632;2022-08-19T03:36:05;97875.63;;;21.98;100.00
21359;BME280;13506;50.852;20.632;2022-08-19T03:38:36;97874.38;;;21.86;100.00
21359;BME280;13506;50.852;20.632;2022-08-19T03:41:06;97882.03;;;21.72;100.00
21359;BME280;13506;50.852;20.632;2022-08-19T03:43:36;97880.22;;;21.65;100.00
21359;BME280;13506;50.852;20.632;2022-08-19T03:46:07;97887.25;;;21.49;100.00
21359;BME280;13506;50.852;20.632;2022-08-19T03:48:39;97886.75;;;21.46;100.00
21359;BME280;13506;50.852;20.632;2022-08-19T03:51:14;97886.06;;;21.60;100.00
21359;BME280;13506;50.852;20.632;2022-08-19T03:53:43;97894.47;;;21.64;100.00
21359;BME280;13506;50.852;20.632;2022-08-19T03:56:11;97901.63;;;21.55;100.00
21359;BME280;13506;50.852;20.632;2022-08-19T03:58:40;97899.44;;;21.59;100.00
21359;BME280;13506;50.852;20.632;2022-08-19T04:01:09;97906.03;;;21.71;100.00
21359;BME280;13506;50.852;20.632;2022-08-19T04:03:39;97906.00;;;21.79;100.00
21359;BME280;13506;50.852;20.632;2022-08-19T04:06:11;97905.03;;;21.80;100.00
21359;BME280;13506;50.852;20.632;2022-08-19T04:08:40;97903.94;;;21.98;100.00
21359;BME280;13506;50.852;20.632;2022-08-19T04:11:08;97914.00;;;22.10;100.00
21359;BME280;13506;50.852;20.632;2022-08-19T04:13:36;97919.72;;;22.22;100.00
21359;BME280;13506;50.852;20.632;2022-08-19T04:16:06;97927.06;;;22.12;100.00
21359;BME280;13506;50.852;20.632;2022-08-19T04:18:38;97928.97;;;22.34;100.00
21359;BME280;13506;50.852;20.632;2022-08-19T04:21:07;97927.06;;;22.43;100.00
21359;BME280;13506;50.852;20.632;2022-08-19T04:23:35;97936.94;;;22.58;100.00
21359;BME280;13506;50.852;20.632;2022-08-19T04:26:03;97930.44;;;22.60;100.00
21359;BME280;13506;50.852;20.632;2022-08-19T04:28:31;97940.69;;;22.40;100.00
21359;BME280;13506;50.852;20.632;2022-08-19T04:30:58;97939.31;;;22.52;100.00
21359;BME280;13506;50.852;20.632;2022-08-19T04:33:26;97933.81;;;22.54;100.00
21359;BME280;13506;50.852;20.632;2022-08-19T04:35:56;97935.81;;;22.52;100.00
21359;BME280;13506;50.852;20.632;2022-08-19T04:38:24;97927.81;;;22.60;100.00
21359;BME280;13506;50.852;20.632;2022-08-19T04:40:52;97926.41;;;22.72;100.00
21359;BME280;13506;50.852;20.632;2022-08-19T04:43:38;97909.06;;;22.85;100.00
21359;BME280;13506;50.852;20.632;2022-08-19T04:46:06;97909.06;;;22.85;100.00
21359;BME280;13506;50.852;20.632;2022-08-19T04:48:34;97919.22;;;23.04;100.00
21359;BME280;13506;50.852;20.632;2022-08-19T04:51:09;97915.56;;;23.05;100.00
21359;BME280;13506;50.852;20.632;2022-08-19T04:53:39;97915.84;;;22.87;100.00
21359;BME280;13506;50.852;20.632;2022-08-19T04:56:11;97909.66;;;22.95;100.00
21359;BME280;13506;50.852;20.632;2022-08-19T04:58:41;97911.19;;;22.89;100.00
21359;BME280;13506;50.852;20.632;2022-08-19T05:01:12;97908.41;;;22.83;100.00
21359;BME280;13506;50.852;20.632;2022-08-19T05:03:39;97906.34;;;22.93;100.00
21359;BME280;13506;50.852;20.632;2022-08-19T05:06:11;97904.78;;;23.22;100.00
21359;BME280;13506;50.852;20.632;2022-08-19T05:08:41;97903.41;;;23.11;100.00
21359;BME280;13506;50.852;20.632;2022-08-19T05:11:11;97901.97;;;23.23;98.86
21359;BME280;13506;50.852;20.632;2022-08-19T05:13:40;97895.13;;;23.44;98.46
21359;BME280;13506;50.852;20.632;2022-08-19T05:16:11;97893.47;;;23.57;97.57
21359;BME280;13506;50.852;20.632;2022-08-19T05:18:40;97893.66;;;23.71;96.93
21359;BME280;13506;50.852;20.632;2022-08-19T05:21:27;97887.66;;;23.77;95.39
21359;BME280;13506;50.852;20.632;2022-08-19T05:24:14;97894.22;;;23.81;95.72
21359;BME280;13506;50.852;20.632;2022-08-19T05:26:44;97902.38;;;23.94;95.53
21359;BME280;13506;50.852;20.632;2022-08-19T05:29:13;97901.53;;;24.09;95.43
21359;BME280;13506;50.852;20.632;2022-08-19T05:31:41;97906.47;;;24.12;93.75
21359;BME280;13506;50.852;20.632;2022-08-19T05:34:10;97910.59;;;24.36;93.09
21359;BME280;13506;50.852;20.632;2022-08-19T05:36:42;97898.97;;;24.52;92.13
21359;BME280;13506;50.852;20.632;2022-08-19T05:39:14;97904.47;;;24.72;91.80
21359;BME280;13506;50.852;20.632;2022-08-19T05:41:42;97906.19;;;24.79;91.90
21359;BME280;13506;50.852;20.632;2022-08-19T05:44:10;97903.63;;;24.93;91.39
21359;BME280;13506;50.852;20.632;2022-08-19T05:46:39;97902.50;;;25.02;90.22
21359;BME280;13506;50.852;20.632;2022-08-19T05:49:07;97910.38;;;25.17;89.84
21359;BME280;13506;50.852;20.632;2022-08-19T05:51:36;97908.63;;;25.24;89.17
21359;BME280;13506;50.852;20.632;2022-08-19T05:54:06;97911.19;;;25.39;88.14
21359;BME280;13506;50.852;20.632;2022-08-19T05:56:35;97906.19;;;25.57;88.07
21359;BME280;13506;50.852;20.632;2022-08-19T05:59:05;97913.66;;;25.75;87.15
21359;BME280;13506;50.852;20.632;2022-08-19T06:01:35;97909.59;;;25.86;87.13
21359;BME280;13506;50.852;20.632;2022-08-19T06:04:03;97910.56;;;26.07;86.76
21359;BME280;13506;50.852;20.632;2022-08-19T06:06:31;97912.38;;;25.99;86.04
21359;BME280;13506;50.852;20.632;2022-08-19T06:09:00;97921.63;;;26.04;83.74
21359;BME280;13506;50.852;20.632;2022-08-19T06:11:36;97927.59;;;26.06;83.50
21359;BME280;13506;50.852;20.632;2022-08-19T06:14:07;97926.97;;;26.04;82.75
21359;BME280;13506;50.852;20.632;2022-08-19T06:16:37;97933.28;;;26.03;82.64
21359;BME280;13506;50.852;20.632;2022-08-19T06:19:09;97936.59;;;26.05;82.24
21359;BME280;13506;50.852;20.632;2022-08-19T06:21:39;97939.47;;;26.10;81.33
21359;BME280;13506;50.852;20.632;2022-08-19T06:24:10;97938.06;;;26.14;81.67
21359;BME280;13506;50.852;20.632;2022-08-19T06:26:42;97958.09;;;26.03;81.64
21359;BME280;13506;50.852;20.632;2022-08-19T06:29:12;97952.22;;;26.14;81.98
21359;BME280;13506;50.852;20.632;2022-08-19T06:31:43;97953.03;;;26.15;82.17
21359;BME280;13506;50.852;20.632;2022-08-19T06:34:12;97949.03;;;26.39;81.38
21359;BME280;13506;50.852;20.632;2022-08-19T06:36:43;97949.75;;;26.61;80.37
21359;BME280;13506;50.852;20.632;2022-08-19T06:39:13;97945.47;;;26.80;80.09
21359;BME280;13506;50.852;20.632;2022-08-19T06:41:45;97942.00;;;26.93;79.35
21359;BME280;13506;50.852;20.632;2022-08-19T06:44:18;97934.81;;;27.07;79.07
21359;BME280;13506;50.852;20.632;2022-08-19T06:46:47;97943.88;;;27.32;78.21
21359;BME280;13506;50.852;20.632;2022-08-19T06:49:16;97941.22;;;27.46;76.52
21359;BME280;13506;50.852;20.632;2022-08-19T06:51:45;97943.44;;;27.69;76.57
21359;BME280;13506;50.852;20.632;2022-08-19T06:54:14;97939.09;;;27.88;75.21
21359;BME280;13506;50.852;20.632;2022-08-19T06:56:43;97945.72;;;27.58;75.33
21359;BME280;13506;50.852;20.632;2022-08-19T06:59:14;97945.25;;;27.75;75.81
21359;BME280;13506;50.852;20.632;2022-08-19T07:01:45;97945.06;;;27.70;76.19
21359;BME280;13506;50.852;20.632;2022-08-19T07:04:15;97933.69;;;28.01;75.79
21359;BME280;13506;50.852;20.632;2022-08-19T07:06:44;97932.25;;;27.85;74.78
21359;BME280;13506;50.852;20.632;2022-08-19T07:09:15;97940.72;;;27.82;70.15
21359;BME280;13506;50.852;20.632;2022-08-19T07:11:45;97942.75;;;27.93;69.24
21359;BME280;13506;50.852;20.632;2022-08-19T07:14:15;97938.25;;;28.00;69.22
21359;BME280;13506;50.852;20.632;2022-08-19T07:16:44;97925.94;;;27.86;69.30
21359;BME280;13506;50.852;20.632;2022-08-19T07:19:12;97937.75;;;28.17;67.48
21359;BME280;13506;50.852;20.632;2022-08-19T07:21:41;97927.44;;;28.20;67.03
21359;BME280;13506;50.852;20.632;2022-08-19T07:24:09;97935.88;;;28.24;65.61
21359;BME280;13506;50.852;20.632;2022-08-19T07:26:40;97928.88;;;28.23;66.65
21359;BME280;13506;50.852;20.632;2022-08-19T07:29:11;97920.72;;;27.98;65.61
21359;BME280;13506;50.852;20.632;2022-08-19T07:31:39;97920.25;;;28.14;65.52
21359;BME280;13506;50.852;20.632;2022-08-19T07:34:10;97918.75;;;28.32;64.88
21359;BME280;13506;50.852;20.632;2022-08-19T07:36:42;97915.16;;;28.45;65.06
21359;BME280;13506;50.852;20.632;2022-08-19T07:39:14;97924.03;;;28.83;63.88
21359;BME280;13506;50.852;20.632;2022-08-19T07:41:44;97934.84;;;28.63;63.30
21359;BME280;13506;50.852;20.632;2022-08-19T07:44:14;97943.88;;;29.01;62.69
21359;BME280;13506;50.852;20.632;2022-08-19T07:46:44;97948.47;;;29.26;61.39
21359;BME280;13506;50.852;20.632;2022-08-19T07:49:13;97944.53;;;29.72;61.32
21359;BME280;13506;50.852;20.632;2022-08-19T07:51:46;97942.97;;;29.64;60.05
21359;BME280;13506;50.852;20.632;2022-08-19T07:54:15;97946.28;;;29.85;59.68
21359;BME280;13506;50.852;20.632;2022-08-19T07:56:42;97946.13;;;29.79;60.18
21359;BME280;13506;50.852;20.632;2022-08-19T07:59:10;97944.34;;;30.29;59.20
21359;BME280;13506;50.852;20.632;2022-08-19T08:01:39;97952.31;;;30.17;58.70
21359;BME280;13506;50.852;20.632;2022-08-19T08:04:07;97946.13;;;30.16;57.16
21359;BME280;13506;50.852;20.632;2022-08-19T08:06:52;97967.00;;;30.33;57.07
21359;BME280;13506;50.852;20.632;2022-08-19T08:09:41;97975.03;;;30.51;56.92
21359;BME280;13506;50.852;20.632;2022-08-19T08:12:13;97974.66;;;30.48;55.83
21359;BME280;13506;50.852;20.632;2022-08-19T08:14:44;97976.66;;;30.52;56.15
21359;BME280;13506;50.852;20.632;2022-08-19T08:17:16;97965.72;;;30.35;56.10
21359;BME280;13506;50.852;20.632;2022-08-19T08:19:44;97976.97;;;30.26;56.61
21359;BME280;13506;50.852;20.632;2022-08-19T08:22:16;97974.50;;;30.24;56.84
21359;BME280;13506;50.852;20.632;2022-08-19T08:25:03;97967.78;;;30.52;56.46
21359;BME280;13506;50.852;20.632;2022-08-19T08:27:30;97971.81;;;31.03;53.97
21359;BME280;13506;50.852;20.632;2022-08-19T08:29:58;97974.34;;;31.16;53.73
21359;BME280;13506;50.852;20.632;2022-08-19T08:32:27;97969.28;;;31.20;53.29
21359;BME280;13506;50.852;20.632;2022-08-19T08:34:54;97965.78;;;30.77;53.76
21359;BME280;13506;50.852;20.632;2022-08-19T08:37:22;97969.88;;;31.22;53.16
21359;BME280;13506;50.852;20.632;2022-08-19T08:39:49;97956.69;;;30.78;52.56
21359;BME280;13506;50.852;20.632;2022-08-19T08:42:24;97963.75;;;30.91;52.27
21359;BME280;13506;50.852;20.632;2022-08-19T08:45:00;97971.03;;;31.02;52.84
21359;BME280;13506;50.852;20.632;2022-08-19T08:47:34;97976.09;;;31.22;53.12
21359;BME280;13506;50.852;20.632;2022-08-19T08:50:06;97972.22;;;31.18;51.87
21359;BME280;13506;50.852;20.632;2022-08-19T08:52:41;97983.91;;;31.24;52.52
21359;BME280;13506;50.852;20.632;2022-08-19T08:55:13;97978.31;;;31.25;52.64
21359;BME280;13506;50.852;20.632;2022-08-19T08:57:51;97985.16;;;31.63;52.61
21359;BME280;13506;50.852;20.632;2022-08-19T09:00:26;97995.56;;;31.72;50.77
21359;BME280;13506;50.852;20.632;2022-08-19T09:02:58;97984.22;;;31.81;50.16
21359;BME280;13506;50.852;20.632;2022-08-19T09:05:37;97991.94;;;31.66;51.06
21359;BME280;13506;50.852;20.632;2022-08-19T09:08:18;97993.69;;;31.60;51.06
21359;BME280;13506;50.852;20.632;2022-08-19T09:10:53;97986.66;;;31.59;51.55
21359;BME280;13506;50.852;20.632;2022-08-19T09:13:30;97993.34;;;31.92;51.52
21359;BME280;13506;50.852;20.632;2022-08-19T09:16:03;97984.34;;;31.98;50.39
21359;BME280;13506;50.852;20.632;2022-08-19T09:18:42;97983.72;;;32.08;50.12
21359;BME280;13506;50.852;20.632;2022-08-19T09:21:10;97985.09;;;32.22;49.77
21359;BME280;13506;50.852;20.632;2022-08-19T09:23:39;97980.22;;;32.60;48.83
21359;BME280;13506;50.852;20.632;2022-08-19T09:26:08;97980.22;;;32.48;48.95
21359;BME280;13506;50.852;20.632;2022-08-19T09:28:39;97986.16;;;32.91;48.93
21359;BME280;13506;50.852;20.632;2022-08-19T09:31:09;97987.94;;;32.85;48.51
21359;BME280;13506;50.852;20.632;2022-08-19T09:33:37;97983.72;;;33.06;48.33
21359;BME280;13506;50.852;20.632;2022-08-19T09:36:10;97977.91;;;33.43;47.48
21359;BME280;13506;50.852;20.632;2022-08-19T09:38:38;97981.63;;;33.08;48.11
21359;BME280;13506;50.852;20.632;2022-08-19T09:41:09;97992.44;;;32.79;49.40
21359;BME280;13506;50.852;20.632;2022-08-19T09:43:40;97974.41;;;33.25;48.56
21359;BME280;13506;50.852;20.632;2022-08-19T09:46:09;97977.31;;;33.41;48.07
21359;BME280;13506;50.852;20.632;2022-08-19T09:48:37;97976.00;;;33.43;47.73
21359;BME280;13506;50.852;20.632;2022-08-19T09:51:09;97984.09;;;33.26;47.61
21359;BME280;13506;50.852;20.632;2022-08-19T09:53:38;97979.84;;;33.14;46.77
21359;BME280;13506;50.852;20.632;2022-08-19T09:56:06;97980.66;;;33.31;47.66
21359;BME280;13506;50.852;20.632;2022-08-19T09:58:35;97973.25;;;32.93;47.57
21359;BME280;13506;50.852;20.632;2022-08-19T10:01:04;97973.56;;;33.25;47.12
21359;BME280;13506;50.852;20.632;2022-08-19T10:03:34;97972.97;;;33.40;47.22
21359;BME280;13506;50.852;20.632;2022-08-19T10:06:06;97962.69;;;33.71;46.50
21359;BME280;13506;50.852;20.632;2022-08-19T10:08:37;97972.16;;;33.56;47.71
21359;BME280;13506;50.852;20.632;2022-08-19T10:11:05;97966.56;;;33.80;47.90
21359;BME280;13506;50.852;20.632;2022-08-19T10:13:34;97973.78;;;33.91;47.12
21359;BME280;13506;50.852;20.632;2022-08-19T10:16:06;97960.69;;;34.05;47.04
21359;BME280;13506;50.852;20.632;2022-08-19T10:18:36;97969.69;;;34.11;46.16
21359;BME280;13506;50.852;20.632;2022-08-19T10:21:09;97967.47;;;34.07;45.66
21359;BME280;13506;50.852;20.632;2022-08-19T10:23:38;97951.34;;;33.91;46.25
21359;BME280;13506;50.852;20.632;2022-08-19T10:26:13;97952.78;;;33.98;45.73
21359;BME280;13506;50.852;20.632;2022-08-19T10:28:40;97957.06;;;33.94;46.70
21359;BME280;13506;50.852;20.632;2022-08-19T10:31:11;97965.59;;;33.86;45.58
21359;BME280;13506;50.852;20.632;2022-08-19T10:33:39;97948.28;;;33.65;45.35
21359;BME280;13506;50.852;20.632;2022-08-19T10:36:12;97951.56;;;33.50;45.23
21359;BME280;13506;50.852;20.632;2022-08-19T10:38:41;97948.94;;;33.55;46.53
21359;BME280;13506;50.852;20.632;2022-08-19T10:41:13;97953.22;;;33.90;45.40
21359;BME280;13506;50.852;20.632;2022-08-19T10:43:41;97941.44;;;33.96;44.76
21359;BME280;13506;50.852;20.632;2022-08-19T10:46:13;97955.09;;;34.12;44.76
21359;BME280;13506;50.852;20.632;2022-08-19T10:48:42;97946.25;;;33.94;44.39
21359;BME280;13506;50.852;20.632;2022-08-19T10:51:12;97945.22;;;34.17;44.35
21359;BME280;13506;50.852;20.632;2022-08-19T10:53:59;97944.59;;;34.10;44.74
21359;BME280;13506;50.852;20.632;2022-08-19T10:56:27;97947.38;;;34.15;44.22
21359;BME280;13506;50.852;20.632;2022-08-19T10:59:13;97951.16;;;33.97;44.67
21359;BME280;13506;50.852;20.632;2022-08-19T11:01:42;97937.66;;;33.97;44.55
21359;BME280;13506;50.852;20.632;2022-08-19T11:04:11;97939.06;;;34.22;44.93
21359;BME280;13506;50.852;20.632;2022-08-19T11:06:42;97931.66;;;34.61;44.08
21359;BME280;13506;50.852;20.632;2022-08-19T11:09:11;97945.09;;;34.56;43.76
21359;BME280;13506;50.852;20.632;2022-08-19T11:11:38;97937.75;;;34.52;43.90
21359;BME280;13506;50.852;20.632;2022-08-19T11:14:08;97934.66;;;34.38;43.72
21359;BME280;13506;50.852;20.632;2022-08-19T11:16:37;97932.25;;;34.41;44.04
21359;BME280;13506;50.852;20.632;2022-08-19T11:19:06;97933.47;;;34.56;43.25
21359;BME280;13506;50.852;20.632;2022-08-19T11:21:37;97929.06;;;34.44;43.99
21359;BME280;13506;50.852;20.632;2022-08-19T11:24:11;97929.44;;;34.09;45.50
21359;BME280;13506;50.852;20.632;2022-08-19T11:26:41;97923.53;;;34.34;44.55
21359;BME280;13506;50.852;20.632;2022-08-19T11:29:11;97918.22;;;34.66;44.47
21359;BME280;13506;50.852;20.632;2022-08-19T11:31:43;97912.44;;;34.85;44.19
21359;BME280;13506;50.852;20.632;2022-08-19T11:34:17;97919.88;;;34.67;45.01
21359;BME280;13506;50.852;20.632;2022-08-19T11:36:48;97917.34;;;34.61;44.55
21359;BME280;13506;50.852;20.632;2022-08-19T11:39:20;97912.75;;;34.89;44.16
21359;BME280;13506;50.852;20.632;2022-08-19T11:41:48;97914.06;;;34.59;45.09
21359;BME280;13506;50.852;20.632;2022-08-19T11:44:17;97917.28;;;34.56;44.71
21359;BME280;13506;50.852;20.632;2022-08-19T11:46:46;97913.56;;;34.62;44.71
21359;BME280;13506;50.852;20.632;2022-08-19T11:49:14;97909.50;;;34.86;44.34
21359;BME280;13506;50.852;20.632;2022-08-19T11:51:43;97913.38;;;34.69;43.79
21359;BME280;13506;50.852;20.632;2022-08-19T11:54:11;97915.31;;;35.05;43.96
21359;BME280;13506;50.852;20.632;2022-08-19T11:56:41;97923.38;;;35.00;43.66
21359;BME280;13506;50.852;20.632;2022-08-19T11:59:09;97918.66;;;34.85;43.12
21359;BME280;13506;50.852;20.632;2022-08-19T12:01:37;97920.91;;;34.99;43.22
21359;BME280;13506;50.852;20.632;2022-08-19T12:04:07;97919.19;;;34.82;43.79
21359;BME280;13506;50.852;20.632;2022-08-19T12:06:39;97915.38;;;34.56;44.07
21359;BME280;13506;50.852;20.632;2022-08-19T12:09:09;97910.06;;;34.89;44.33
21359;BME280;13506;50.852;20.632;2022-08-19T12:11:37;97914.47;;;35.00;44.08
21359;BME280;13506;50.852;20.632;2022-08-19T12:14:11;97902.84;;;35.04;43.76
21359;BME280;13506;50.852;20.632;2022-08-19T12:16:40;97900.91;;;35.32;42.33
21359;BME280;13506;50.852;20.632;2022-08-19T12:19:08;97893.97;;;35.46;43.59
21359;BME280;13506;50.852;20.632;2022-08-19T12:21:36;97898.53;;;35.41;41.95
21359;BME280;13506;50.852;20.632;2022-08-19T12:24:05;97894.16;;;35.35;42.73
21359;BME280;13506;50.852;20.632;2022-08-19T12:26:33;97886.25;;;35.23;41.95
21359;BME280;13506;50.852;20.632;2022-08-19T12:29:01;97888.06;;;35.12;42.26
21359;BME280;13506;50.852;20.632;2022-08-19T12:31:31;97876.41;;;35.49;42.98
21359;BME280;13506;50.852;20.632;2022-08-19T12:33:59;97869.13;;;35.60;42.02
21359;BME280;13506;50.852;20.632;2022-08-19T12:36:27;97869.44;;;35.63;41.64
21359;BME280;13506;50.852;20.632;2022-08-19T12:38:55;97864.53;;;35.55;41.36
21359;BME280;13506;50.852;20.632;2022-08-19T12:41:25;97872.09;;;35.53;41.68
21359;BME280;13506;50.852;20.632;2022-08-19T12:43:53;97861.66;;;35.24;40.75
21359;BME280;13506;50.852;20.632;2022-08-19T12:46:21;97866.06;;;35.41;41.22
21359;BME280;13506;50.852;20.632;2022-08-19T12:48:49;97866.34;;;35.39;41.33
21359;BME280;13506;50.852;20.632;2022-08-19T12:51:19;97869.63;;;34.72;41.88
21359;BME280;13506;50.852;20.632;2022-08-19T12:53:47;97869.19;;;34.58;42.49
21359;BME280;13506;50.852;20.632;2022-08-19T12:56:16;97875.28;;;34.70;41.90
21359;BME280;13506;50.852;20.632;2022-08-19T12:58:45;97875.47;;;34.91;41.75
21359;BME280;13506;50.852;20.632;2022-08-19T13:01:15;97868.28;;;34.74;42.04